sensor_id;sensor_type;location;lat;lon;timestamp;P1;durP1;ratioP1;P2;durP2;ratioP2
51491;SDS011;37569;50.548;8.778;2022-11-12T00:02:51;50;;;13;;
51491;SDS011;37569;50.548;8.778;2022-11-12T00:07:51;173.6;;;17.4;;
51491;SDS011;37569;50.548;8.778;2022-11-12T00:12:52;102.8;;;12.5;;
51491;SDS011;37569;50.548;8.778;2022-11-12T00:17:52;124.7;;;14.4;;
51491;SDS011;37569;50.548;8.778;2022-11-12T00:22:52;93.8;;;13;;
51491;SDS011;37569;50.548;8.778;2022-11-12T00:27:52;100.2;;;12.7;;
51491;SDS011;37569;50.548;8.778;2022-11-12T00:32:53;120.3;;;12;;
51491;SDS011;37569;50.548;8.778;2022-11-12T00:37:53;105.5;;;12.9;;
51491;SDS011;37569;50.548;8.778;2022-11-12T00:42:53;84.7;;;11.3;;
51491;SDS011;37569;50.548;8.778;2022-11-12T00:47:54;123.1;;;13.8;;
51491;SDS011;37569;50.548;8.778;2022-11-12T00:52:54;106.4;;;12.2;;
51491;SDS011;37569;50.548;8.778;2022-11-12T00:57:56;37;;;10.4;;
51491;SDS011;37569;50.548;8.778;2022-11-12T01:02:54;79.1;;;11.5;;
51491;SDS011;37569;50.548;8.778;2022-11-12T01:07:55;75.3;;;11.9;;
51491;SDS011;37569;50.548;8.778;2022-11-12T01:12:55;77.2;;;12.3;;
51491;SDS011;37569;50.548;8.778;2022-11-12T01:17:55;75.4;;;11.4;;
51491;SDS011;37569;50.548;8.778;2022-11-12T01:22:56;103.5;;;12.8;;
51491;SDS011;37569;50.548;8.778;2022-11-12T01:27:57;126.1;;;14.5;;
51491;SDS011;37569;50.548;8.778;2022-11-12T01:32:56;99.5;;;12.4;;
51491;SDS011;37569;50.548;8.778;2022-11-12T01:42:57;40.6;;;9.7;;
51491;SDS011;37569;50.548;8.778;2022-11-12T01:47:57;40.5;;;11;;
51491;SDS011;37569;50.548;8.778;2022-11-12T01:52:58;25.8;;;10.5;;
51491;SDS011;37569;50.548;8.778;2022-11-12T01:57:58;63;;;11.5;;
51491;SDS011;37569;50.548;8.778;2022-11-12T02:02:58;79.8;;;12.2;;
51491;SDS011;37569;50.548;8.778;2022-11-12T02:07:58;33.1;;;10;;
51491;SDS011;37569;50.548;8.778;2022-11-12T02:12:58;62.2;;;11;;
51491;SDS011;37569;50.548;8.778;2022-11-12T02:17:59;38.1;;;10.3;;
51491;SDS011;37569;50.548;8.778;2022-11-12T02:22:59;60.5;;;12.3;;
51491;SDS011;37569;50.548;8.778;2022-11-12T02:27:59;24;;;9.7;;
51491;SDS011;37569;50.548;8.778;2022-11-12T02:32:59;42.9;;;10.1;;
51491;SDS011;37569;50.548;8.778;2022-11-12T02:38:00;21.5;;;9.8;;
51491;SDS011;37569;50.548;8.778;2022-11-12T02:43:00;30.2;;;9.9;;
51491;SDS011;37569;50.548;8.778;2022-11-12T02:48:00;19.9;;;9.6;;
51491;SDS011;37569;50.548;8.778;2022-11-12T02:53:01;44.8;;;10.6;;
51491;SDS011;37569;50.548;8.778;2022-11-12T02:58:01;87.3;;;12.6;;
51491;SDS011;37569;50.548;8.778;2022-11-12T03:03:01;66.5;;;13.2;;
51491;SDS011;37569;50.548;8.778;2022-11-12T03:08:02;31.2;;;9.9;;
51491;SDS011;37569;50.548;8.778;2022-11-12T03:13:02;71.3;;;11.4;;
51491;SDS011;37569;50.548;8.778;2022-11-12T03:18:02;45.4;;;11.3;;
51491;SDS011;37569;50.548;8.778;2022-11-12T03:23:03;45.2;;;10.8;;
51491;SDS011;37569;50.548;8.778;2022-11-12T03:28:04;77.3;;;12.4;;
51491;SDS011;37569;50.548;8.778;2022-11-12T03:33:04;23.2;;;10.2;;
51491;SDS011;37569;50.548;8.778;2022-11-12T03:38:03;68.4;;;11.2;;
51491;SDS011;37569;50.548;8.778;2022-11-12T03:43:03;66.4;;;13.5;;
51491;SDS011;37569;50.548;8.778;2022-11-12T03:48:04;32;;;10.6;;
51491;SDS011;37569;50.548;8.778;2022-11-12T03:53:04;78.7;;;13.2;;
51491;SDS011;37569;50.548;8.778;2022-11-12T03:58:04;130.4;;;16.8;;
51491;SDS011;37569;50.548;8.778;2022-11-12T04:03:04;91.4;;;14.1;;
51491;SDS011;37569;50.548;8.778;2022-11-12T04:08:05;28.1;;;10.9;;
51491;SDS011;37569;50.548;8.778;2022-11-12T04:13:05;168.4;;;16.2;;
51491;SDS011;37569;50.548;8.778;2022-11-12T04:18:05;79.6;;;12.6;;
51491;SDS011;37569;50.548;8.778;2022-11-12T04:23:05;30.7;;;10.3;;
51491;SDS011;37569;50.548;8.778;2022-11-12T04:28:06;39.7;;;11.3;;
51491;SDS011;37569;50.548;8.778;2022-11-12T04:33:06;58.2;;;11.3;;
51491;SDS011;37569;50.548;8.778;2022-11-12T04:38:06;39.7;;;11.2;;
51491;SDS011;37569;50.548;8.778;2022-11-12T04:43:07;18.4;;;10.9;;
51491;SDS011;37569;50.548;8.778;2022-11-12T04:48:07;37.2;;;11.1;;
51491;SDS011;37569;50.548;8.778;2022-11-12T04:53:07;74.9;;;11.9;;
51491;SDS011;37569;50.548;8.778;2022-11-12T04:58:07;54.3;;;11;;
51491;SDS011;37569;50.548;8.778;2022-11-12T05:03:08;31.4;;;10.1;;
51491;SDS011;37569;50.548;8.778;2022-11-12T05:08:08;59.8;;;10.1;;
51491;SDS011;37569;50.548;8.778;2022-11-12T05:13:08;43;;;11;;
51491;SDS011;37569;50.548;8.778;2022-11-12T05:18:08;105.2;;;14.5;;
51491;SDS011;37569;50.548;8.778;2022-11-12T05:23:09;52.3;;;11.1;;
51491;SDS011;37569;50.548;8.778;2022-11-12T05:28:09;62.6;;;12;;
51491;SDS011;37569;50.548;8.778;2022-11-12T05:33:09;97.2;;;14;;
51491;SDS011;37569;50.548;8.778;2022-11-12T05:38:09;104.2;;;15;;
51491;SDS011;37569;50.548;8.778;2022-11-12T05:43:10;75.8;;;12.6;;
51491;SDS011;37569;50.548;8.778;2022-11-12T05:48:10;83.6;;;13;;
51491;SDS011;37569;50.548;8.778;2022-11-12T05:53:10;140.6;;;17.1;;
51491;SDS011;37569;50.548;8.778;2022-11-12T05:58:10;21.4;;;10.7;;
51491;SDS011;37569;50.548;8.778;2022-11-12T06:03:11;29.5;;;12;;
51491;SDS011;37569;50.548;8.778;2022-11-12T06:08:11;68.5;;;11.4;;
51491;SDS011;37569;50.548;8.778;2022-11-12T06:13:11;46.5;;;9.7;;
51491;SDS011;37569;50.548;8.778;2022-11-12T06:18:12;41.6;;;8.5;;
51491;SDS011;37569;50.548;8.778;2022-11-12T06:23:12;51.5;;;9.5;;
51491;SDS011;37569;50.548;8.778;2022-11-12T06:28:12;19.5;;;7.9;;
51491;SDS011;37569;50.548;8.778;2022-11-12T06:33:13;21.5;;;7.6;;
51491;SDS011;37569;50.548;8.778;2022-11-12T06:48:13;29.8;;;7.3;;
51491;SDS011;37569;50.548;8.778;2022-11-12T06:53:14;28.6;;;7.2;;
51491;SDS011;37569;50.548;8.778;2022-11-12T06:58:14;31.6;;;6.9;;
51491;SDS011;37569;50.548;8.778;2022-11-12T07:03:24;35;;;7.6;;
51491;SDS011;37569;50.548;8.778;2022-11-12T07:08:15;28.5;;;7.4;;
51491;SDS011;37569;50.548;8.778;2022-11-12T07:13:15;56;;;8.8;;
51491;SDS011;37569;50.548;8.778;2022-11-12T07:18:15;89.8;;;10.9;;
51491;SDS011;37569;50.548;8.778;2022-11-12T07:23:15;46.3;;;8.4;;
51491;SDS011;37569;50.548;8.778;2022-11-12T07:28:15;77.2;;;9.6;;
51491;SDS011;37569;50.548;8.778;2022-11-12T07:33:15;44.7;;;9.2;;
51491;SDS011;37569;50.548;8.778;2022-11-12T07:38:16;45.6;;;9.2;;
51491;SDS011;37569;50.548;8.778;2022-11-12T07:43:16;69.1;;;10.4;;
51491;SDS011;37569;50.548;8.778;2022-11-12T07:48:16;33.4;;;8.4;;
51491;SDS011;37569;50.548;8.778;2022-11-12T07:53:16;64.9;;;9.6;;
51491;SDS011;37569;50.548;8.778;2022-11-12T07:58:17;41.2;;;8.6;;
51491;SDS011;37569;50.548;8.778;2022-11-12T08:03:17;66.4;;;10.1;;
51491;SDS011;37569;50.548;8.778;2022-11-12T08:08:17;34.8;;;8.7;;
51491;SDS011;37569;50.548;8.778;2022-11-12T08:13:17;78.3;;;10.6;;
51491;SDS011;37569;50.548;8.778;2022-11-12T08:18:17;59.9;;;8.6;;
51491;SDS011;37569;50.548;8.778;2022-11-12T08:23:18;69.7;;;15;;
51491;SDS011;37569;50.548;8.778;2022-11-12T08:28:18;126.1;;;18.1;;
51491;SDS011;37569;50.548;8.778;2022-11-12T08:33:18;26;;;10.3;;
51491;SDS011;37569;50.548;8.778;2022-11-12T08:38:18;17.4;;;9;;
51491;SDS011;37569;50.548;8.778;2022-11-12T08:43:19;37.5;;;8.7;;
51491;SDS011;37569;50.548;8.778;2022-11-12T08:48:19;17;;;7.8;;
51491;SDS011;37569;50.548;8.778;2022-11-12T08:53:20;25;;;9.5;;
51491;SDS011;37569;50.548;8.778;2022-11-12T08:58:20;22.2;;;8.5;;
51491;SDS011;37569;50.548;8.778;2022-11-12T09:03:22;24.9;;;9;;
51491;SDS011;37569;50.548;8.778;2022-11-12T09:08:21;22.8;;;9.2;;
51491;SDS011;37569;50.548;8.778;2022-11-12T09:13:20;22.6;;;10.5;;
51491;SDS011;37569;50.548;8.778;2022-11-12T09:18:21;23.4;;;9.8;;
51491;SDS011;37569;50.548;8.778;2022-11-12T09:23:21;13.6;;;9.3;;
51491;SDS011;37569;50.548;8.778;2022-11-12T09:28:21;14.7;;;8.8;;
51491;SDS011;37569;50.548;8.778;2022-11-12T09:33:22;24.8;;;14.4;;
51491;SDS011;37569;50.548;8.778;2022-11-12T09:38:22;63.7;;;12.8;;
51491;SDS011;37569;50.548;8.778;2022-11-12T09:43:23;42.3;;;9.2;;
51491;SDS011;37569;50.548;8.778;2022-11-12T09:48:23;62.3;;;10.8;;
51491;SDS011;37569;50.548;8.778;2022-11-12T09:53:25;63.4;;;10.7;;
51491;SDS011;37569;50.548;8.778;2022-11-12T09:58:23;45.3;;;9.8;;
51491;SDS011;37569;50.548;8.778;2022-11-12T10:08:27;12.9;;;9.3;;
51491;SDS011;37569;50.548;8.778;2022-11-12T10:13:27;29.3;;;10;;
51491;SDS011;37569;50.548;8.778;2022-11-12T10:18:28;18.9;;;10.2;;
51491;SDS011;37569;50.548;8.778;2022-11-12T10:23:25;14.6;;;10.4;;
51491;SDS011;37569;50.548;8.778;2022-11-12T10:28:26;17.3;;;10.8;;
51491;SDS011;37569;50.548;8.778;2022-11-12T10:33:28;16.7;;;9.7;;
51491;SDS011;37569;50.548;8.778;2022-11-12T10:38:25;13.5;;;9.5;;
51491;SDS011;37569;50.548;8.778;2022-11-12T10:43:25;13.5;;;10.9;;
51491;SDS011;37569;50.548;8.778;2022-11-12T10:48:26;16.6;;;10.5;;
51491;SDS011;37569;50.548;8.778;2022-11-12T10:53:34;13.8;;;11;;
51491;SDS011;37569;50.548;8.778;2022-11-12T10:58:26;16;;;12;;
51491;SDS011;37569;50.548;8.778;2022-11-12T11:03:28;13.4;;;10.6;;
51491;SDS011;37569;50.548;8.778;2022-11-12T11:08:31;14.2;;;12.5;;
51491;SDS011;37569;50.548;8.778;2022-11-12T11:13:27;20.3;;;15.7;;
51491;SDS011;37569;50.548;8.778;2022-11-12T11:18:28;26.4;;;18.5;;
51491;SDS011;37569;50.548;8.778;2022-11-12T11:23:29;24.9;;;18.7;;
51491;SDS011;37569;50.548;8.778;2022-11-12T11:28:29;24.8;;;17.8;;
51491;SDS011;37569;50.548;8.778;2022-11-12T11:33:31;23.4;;;17.4;;
51491;SDS011;37569;50.548;8.778;2022-11-12T11:38:31;21.9;;;16.6;;
51491;SDS011;37569;50.548;8.778;2022-11-12T11:43:36;21.8;;;17.2;;
51491;SDS011;37569;50.548;8.778;2022-11-12T11:48:31;19.5;;;15.4;;
51491;SDS011;37569;50.548;8.778;2022-11-12T11:53:32;19.6;;;15.5;;
51491;SDS011;37569;50.548;8.778;2022-11-12T11:58:34;20.5;;;15.3;;
51491;SDS011;37569;50.548;8.778;2022-11-12T12:03:34;20.1;;;16.2;;
51491;SDS011;37569;50.548;8.778;2022-11-12T12:08:35;20.5;;;15.5;;
51491;SDS011;37569;50.548;8.778;2022-11-12T12:13:34;21;;;16;;
51491;SDS011;37569;50.548;8.778;2022-11-12T12:18:33;19.3;;;15.2;;
51491;SDS011;37569;50.548;8.778;2022-11-12T12:23:34;20.5;;;15.5;;
51491;SDS011;37569;50.548;8.778;2022-11-12T12:28:34;20.2;;;15.1;;
51491;SDS011;37569;50.548;8.778;2022-11-12T12:33:34;20.7;;;14.9;;
51491;SDS011;37569;50.548;8.778;2022-11-12T12:38:35;20;;;15.3;;
51491;SDS011;37569;50.548;8.778;2022-11-12T12:43:35;19.4;;;15.3;;
51491;SDS011;37569;50.548;8.778;2022-11-12T12:48:35;19.3;;;15.7;;
51491;SDS011;37569;50.548;8.778;2022-11-12T12:53:35;19.8;;;15.1;;
51491;SDS011;37569;50.548;8.778;2022-11-12T12:58:40;20.3;;;16.1;;
51491;SDS011;37569;50.548;8.778;2022-11-12T13:03:44;20.1;;;15.5;;
51491;SDS011;37569;50.548;8.778;2022-11-12T13:08:36;19.6;;;15.8;;
51491;SDS011;37569;50.548;8.778;2022-11-12T13:13:37;20.9;;;16.7;;
51491;SDS011;37569;50.548;8.778;2022-11-12T13:18:56;20.3;;;15.6;;
51491;SDS011;37569;50.548;8.778;2022-11-12T13:23:45;19.3;;;14.1;;
51491;SDS011;37569;50.548;8.778;2022-11-12T13:28:41;18.5;;;14.8;;
51491;SDS011;37569;50.548;8.778;2022-11-12T13:33:38;17.9;;;14.5;;
51491;SDS011;37569;50.548;8.778;2022-11-12T13:38:38;20.8;;;17.4;;
51491;SDS011;37569;50.548;8.778;2022-11-12T13:43:40;19.9;;;16.2;;
51491;SDS011;37569;50.548;8.778;2022-11-12T13:48:40;19.3;;;16.2;;
51491;SDS011;37569;50.548;8.778;2022-11-12T13:53:40;20.3;;;17;;
51491;SDS011;37569;50.548;8.778;2022-11-12T13:58:40;30.1;;;24.6;;
51491;SDS011;37569;50.548;8.778;2022-11-12T14:03:41;22.9;;;18.1;;
51491;SDS011;37569;50.548;8.778;2022-11-12T14:08:48;22.8;;;17;;
51491;SDS011;37569;50.548;8.778;2022-11-12T14:13:43;31;;;24.1;;
51491;SDS011;37569;50.548;8.778;2022-11-12T14:18:46;24.9;;;19.1;;
51491;SDS011;37569;50.548;8.778;2022-11-12T14:23:43;26.8;;;20.7;;
51491;SDS011;37569;50.548;8.778;2022-11-12T14:28:43;27.1;;;19.8;;
51491;SDS011;37569;50.548;8.778;2022-11-12T14:33:43;29.6;;;22.8;;
51491;SDS011;37569;50.548;8.778;2022-11-12T14:38:44;29.4;;;21.7;;
51491;SDS011;37569;50.548;8.778;2022-11-12T14:43:44;31.8;;;22.9;;
51491;SDS011;37569;50.548;8.778;2022-11-12T14:48:45;30.2;;;22.9;;
51491;SDS011;37569;50.548;8.778;2022-11-12T14:53:45;31.7;;;22.3;;
51491;SDS011;37569;50.548;8.778;2022-11-12T14:58:45;32.3;;;21;;
51491;SDS011;37569;50.548;8.778;2022-11-12T15:08:54;38.9;;;22;;
51491;SDS011;37569;50.548;8.778;2022-11-12T15:13:46;34.2;;;24.5;;
51491;SDS011;37569;50.548;8.778;2022-11-12T15:18:56;39.6;;;22;;
51491;SDS011;37569;50.548;8.778;2022-11-12T15:23:55;39;;;20.4;;
51491;SDS011;37569;50.548;8.778;2022-11-12T15:28:59;31.6;;;20.2;;
51491;SDS011;37569;50.548;8.778;2022-11-12T15:33:47;35.3;;;18.3;;
51491;SDS011;37569;50.548;8.778;2022-11-12T15:38:48;20.6;;;16.7;;
51491;SDS011;37569;50.548;8.778;2022-11-12T15:43:48;20.6;;;16.3;;
51491;SDS011;37569;50.548;8.778;2022-11-12T15:48:49;22.7;;;17.8;;
51491;SDS011;37569;50.548;8.778;2022-11-12T15:53:49;31.6;;;20.5;;
51491;SDS011;37569;50.548;8.778;2022-11-12T15:58:49;57.6;;;25.3;;
51491;SDS011;37569;50.548;8.778;2022-11-12T16:03:50;58.4;;;27.7;;
51491;SDS011;37569;50.548;8.778;2022-11-12T16:08:50;39.9;;;27.1;;
51491;SDS011;37569;50.548;8.778;2022-11-12T16:13:50;43.1;;;26.9;;
51491;SDS011;37569;50.548;8.778;2022-11-12T16:18:51;53.5;;;29.4;;
51491;SDS011;37569;50.548;8.778;2022-11-12T16:23:51;92.1;;;44.8;;
51491;SDS011;37569;50.548;8.778;2022-11-12T16:28:51;83.3;;;51.9;;
51491;SDS011;37569;50.548;8.778;2022-11-12T16:33:52;73.1;;;25.2;;
51491;SDS011;37569;50.548;8.778;2022-11-12T16:38:52;49.1;;;18;;
51491;SDS011;37569;50.548;8.778;2022-11-12T16:43:53;65.1;;;22.9;;
51491;SDS011;37569;50.548;8.778;2022-11-12T16:48:53;35;;;17.9;;
51491;SDS011;37569;50.548;8.778;2022-11-12T16:53:53;39.7;;;17.8;;
51491;SDS011;37569;50.548;8.778;2022-11-12T16:58:53;41.8;;;16.5;;
51491;SDS011;37569;50.548;8.778;2022-11-12T17:03:54;19.2;;;15.2;;
51491;SDS011;37569;50.548;8.778;2022-11-12T17:08:54;28.4;;;18;;
51491;SDS011;37569;50.548;8.778;2022-11-12T17:13:54;45.1;;;23.2;;
51491;SDS011;37569;50.548;8.778;2022-11-12T17:18:55;33.8;;;23.9;;
51491;SDS011;37569;50.548;8.778;2022-11-12T17:23:55;30.3;;;22.3;;
51491;SDS011;37569;50.548;8.778;2022-11-12T17:28:55;32.6;;;24.5;;
51491;SDS011;37569;50.548;8.778;2022-11-12T17:33:55;28.1;;;21.1;;
51491;SDS011;37569;50.548;8.778;2022-11-12T17:38:56;21.6;;;18.6;;
51491;SDS011;37569;50.548;8.778;2022-11-12T17:43:57;21.1;;;18.2;;
51491;SDS011;37569;50.548;8.778;2022-11-12T17:48:56;18.8;;;16.8;;
51491;SDS011;37569;50.548;8.778;2022-11-12T17:53:57;16.7;;;14.9;;
51491;SDS011;37569;50.548;8.778;2022-11-12T17:58:57;19.9;;;15.8;;
51491;SDS011;37569;50.548;8.778;2022-11-12T18:03:57;20.3;;;16.1;;
51491;SDS011;37569;50.548;8.778;2022-11-12T18:08:58;16.6;;;14.2;;
51491;SDS011;37569;50.548;8.778;2022-11-12T18:14:04;16.6;;;14;;
51491;SDS011;37569;50.548;8.778;2022-11-12T18:18:58;15.8;;;13.2;;
51491;SDS011;37569;50.548;8.778;2022-11-12T18:23:58;14.3;;;12.5;;
51491;SDS011;37569;50.548;8.778;2022-11-12T18:28:58;14.1;;;12.4;;
51491;SDS011;37569;50.548;8.778;2022-11-12T18:33:59;18.3;;;15.5;;
51491;SDS011;37569;50.548;8.778;2022-11-12T18:39:02;16;;;14.3;;
51491;SDS011;37569;50.548;8.778;2022-11-12T18:43:59;18.5;;;15.7;;
51491;SDS011;37569;50.548;8.778;2022-11-12T18:49:00;21.1;;;17.2;;
51491;SDS011;37569;50.548;8.778;2022-11-12T18:54:00;19.4;;;16.7;;
51491;SDS011;37569;50.548;8.778;2022-11-12T18:59:00;19.5;;;16.7;;
51491;SDS011;37569;50.548;8.778;2022-11-12T19:04:00;17;;;13.9;;
51491;SDS011;37569;50.548;8.778;2022-11-12T19:09:01;13.7;;;11.7;;
51491;SDS011;37569;50.548;8.778;2022-11-12T19:14:01;12.3;;;10.4;;
51491;SDS011;37569;50.548;8.778;2022-11-12T19:19:01;10.6;;;9.4;;
51491;SDS011;37569;50.548;8.778;2022-11-12T19:24:07;12.7;;;10.7;;
51491;SDS011;37569;50.548;8.778;2022-11-12T19:29:02;13.5;;;12.1;;
51491;SDS011;37569;50.548;8.778;2022-11-12T19:34:02;12.3;;;11.1;;
51491;SDS011;37569;50.548;8.778;2022-11-12T19:39:02;12.6;;;11.2;;
51491;SDS011;37569;50.548;8.778;2022-11-12T19:44:03;13.1;;;10.6;;
51491;SDS011;37569;50.548;8.778;2022-11-12T19:49:03;10;;;8.7;;
51491;SDS011;37569;50.548;8.778;2022-11-12T19:54:03;9;;;8.1;;
51491;SDS011;37569;50.548;8.778;2022-11-12T19:59:03;10;;;8.7;;
51491;SDS011;37569;50.548;8.778;2022-11-12T20:04:03;9.8;;;8.3;;
51491;SDS011;37569;50.548;8.778;2022-11-12T20:09:04;9.6;;;8.6;;
51491;SDS011;37569;50.548;8.778;2022-11-12T20:14:04;9;;;8.1;;
51491;SDS011;37569;50.548;8.778;2022-11-12T20:19:04;10.2;;;8.9;;
51491;SDS011;37569;50.548;8.778;2022-11-12T20:24:04;10.1;;;8.5;;
51491;SDS011;37569;50.548;8.778;2022-11-12T20:29:05;9.5;;;8.5;;
51491;SDS011;37569;50.548;8.778;2022-11-12T20:34:05;10.6;;;8.7;;
51491;SDS011;37569;50.548;8.778;2022-11-12T20:39:05;10.3;;;9.2;;
51491;SDS011;37569;50.548;8.778;2022-11-12T20:44:05;9.2;;;8.2;;
51491;SDS011;37569;50.548;8.778;2022-11-12T20:49:05;9.4;;;8.2;;
51491;SDS011;37569;50.548;8.778;2022-11-12T20:54:07;9.4;;;8.2;;
51491;SDS011;37569;50.548;8.778;2022-11-12T20:59:06;9.3;;;8.3;;
51491;SDS011;37569;50.548;8.778;2022-11-12T21:04:09;9.7;;;7.9;;
51491;SDS011;37569;50.548;8.778;2022-11-12T21:09:06;9.5;;;8.2;;
51491;SDS011;37569;50.548;8.778;2022-11-12T21:14:09;9.8;;;8.3;;
51491;SDS011;37569;50.548;8.778;2022-11-12T21:19:07;10.7;;;8.7;;
51491;SDS011;37569;50.548;8.778;2022-11-12T21:24:07;10.3;;;8.1;;
51491;SDS011;37569;50.548;8.778;2022-11-12T21:29:07;10.7;;;8.2;;
51491;SDS011;37569;50.548;8.778;2022-11-12T21:34:08;11.8;;;9;;
51491;SDS011;37569;50.548;8.778;2022-11-12T21:39:07;11.7;;;9.4;;
51491;SDS011;37569;50.548;8.778;2022-11-12T21:44:08;14;;;10;;
51491;SDS011;37569;50.548;8.778;2022-11-12T21:49:08;12.4;;;9.5;;
51491;SDS011;37569;50.548;8.778;2022-11-12T21:54:08;11.1;;;8.7;;
51491;SDS011;37569;50.548;8.778;2022-11-12T21:59:08;11.9;;;9.3;;
51491;SDS011;37569;50.548;8.778;2022-11-12T22:04:08;14;;;8.9;;
51491;SDS011;37569;50.548;8.778;2022-11-12T22:09:08;17.4;;;9.5;;
51491;SDS011;37569;50.548;8.778;2022-11-12T22:14:08;28;;;9.4;;
51491;SDS011;37569;50.548;8.778;2022-11-12T22:19:09;24.4;;;10.5;;
51491;SDS011;37569;50.548;8.778;2022-11-12T22:24:09;21.8;;;10;;
51491;SDS011;37569;50.548;8.778;2022-11-12T22:29:09;27.6;;;10.2;;
51491;SDS011;37569;50.548;8.778;2022-11-12T22:34:09;17.4;;;9.1;;
51491;SDS011;37569;50.548;8.778;2022-11-12T22:39:09;13.4;;;8.9;;
51491;SDS011;37569;50.548;8.778;2022-11-12T22:44:09;10.5;;;8.8;;
51491;SDS011;37569;50.548;8.778;2022-11-12T22:49:09;10.4;;;8.7;;
51491;SDS011;37569;50.548;8.778;2022-11-12T22:54:09;8.6;;;7.5;;
51491;SDS011;37569;50.548;8.778;2022-11-12T22:59:10;9.7;;;8.1;;
51491;SDS011;37569;50.548;8.778;2022-11-12T23:04:10;8.9;;;7.6;;
51491;SDS011;37569;50.548;8.778;2022-11-12T23:09:13;8.8;;;7.5;;
51491;SDS011;37569;50.548;8.778;2022-11-12T23:14:10;8.6;;;7.6;;
51491;SDS011;37569;50.548;8.778;2022-11-12T23:19:10;7.8;;;7;;
51491;SDS011;37569;50.548;8.778;2022-11-12T23:24:10;9.3;;;8;;
51491;SDS011;37569;50.548;8.778;2022-11-12T23:29:11;8.1;;;7.3;;
51491;SDS011;37569;50.548;8.778;2022-11-12T23:34:11;7.6;;;6.7;;
51491;SDS011;37569;50.548;8.778;2022-11-12T23:39:11;8.1;;;7.1;;
51491;SDS011;37569;50.548;8.778;2022-11-12T23:44:11;8;;;6.8;;
51491;SDS011;37569;50.548;8.778;2022-11-12T23:49:11;8.3;;;7.3;;
51491;SDS011;37569;50.548;8.778;2022-11-12T23:54:11;8.2;;;7;;
51491;SDS011;37569;50.548;8.778;2022-11-12T23:59:11;8.2;;;7.2;;
